Terminal Aerodrome Forecast
Issued by NWS Pocatello, ID

Home | Current Version | Previous Version | Text Only | Print | Product List | Glossary On
Versions: 1 2 3 4 5 6 7 8 9 10 11 12
000
FTUS45 KPIH 230520
TAFPIH
TAF
KPIH 230520Z 2306/2406 20007KT P6SM OVC250
     FM231500 20010KT P6SM VCSH SCT070 OVC150
     FM232000 22010KT P6SM VCTS OVC080CB=

USA.gov is the U.S. government's official web portal to all federal, state and local government web resources and services.